createdAt,value
2023-04-19T00:00:09.582Z,11.72
2023-04-19T00:02:38.185Z,11.68
2023-04-19T00:05:06.606Z,11.69
2023-04-19T00:07:36.387Z,11.67
2023-04-19T00:10:04.706Z,11.56
2023-04-19T00:12:32.960Z,11.57
2023-04-19T00:15:01.027Z,11.50
2023-04-19T00:17:29.251Z,11.48
2023-04-19T00:19:57.749Z,11.52
2023-04-19T00:22:26.302Z,11.51
2023-04-19T00:24:54.321Z,11.51
2023-04-19T00:27:22.288Z,11.53
2023-04-19T00:29:50.224Z,11.52
2023-04-19T00:32:18.289Z,11.50
2023-04-19T00:34:46.220Z,11.59
2023-04-19T00:37:14.209Z,11.61
2023-04-19T00:39:42.185Z,11.46
2023-04-19T00:42:10.405Z,11.44
2023-04-19T00:44:38.527Z,11.41
2023-04-19T00:47:06.533Z,11.38
2023-04-19T00:49:34.499Z,11.35
2023-04-19T00:52:02.463Z,11.27
2023-04-19T00:54:30.672Z,11.15
2023-04-19T00:56:58.616Z,11.08
2023-04-19T00:59:26.534Z,11.10
2023-04-19T01:01:54.551Z,11.03
2023-04-19T01:04:23.204Z,10.96
2023-04-19T01:06:51.489Z,10.97
2023-04-19T01:09:19.770Z,11.03
2023-04-19T01:11:47.880Z,11.00
2023-04-19T01:14:16.887Z,11.00
2023-04-19T01:16:48.102Z,10.98
2023-04-19T01:19:16.879Z,11.08
2023-04-19T01:21:46.463Z,11.17
2023-04-19T01:24:14.724Z,11.21
2023-04-19T01:26:42.966Z,11.23
2023-04-19T01:29:11.016Z,11.23
2023-04-19T01:31:39.281Z,11.16
2023-04-19T01:34:07.264Z,11.16
2023-04-19T01:36:35.149Z,11.15
2023-04-19T01:39:03.113Z,11.13
2023-04-19T01:41:32.545Z,11.07
2023-04-19T01:44:01.442Z,11.07
2023-04-19T01:46:29.807Z,11.03
2023-04-19T01:48:57.690Z,10.94
2023-04-19T01:51:26.069Z,10.81
2023-04-19T01:53:54.930Z,10.67
2023-04-19T01:56:24.422Z,10.60
2023-04-19T01:58:52.324Z,10.48
2023-04-19T02:01:20.758Z,10.46
2023-04-19T02:03:49.674Z,10.41
2023-04-19T02:06:17.679Z,10.26
2023-04-19T02:08:45.623Z,10.29
2023-04-19T02:11:16.933Z,10.28
2023-04-19T02:13:44.839Z,10.25
2023-04-19T02:16:12.819Z,10.30
2023-04-19T02:18:41.727Z,10.25
2023-04-19T02:21:09.807Z,10.42
2023-04-19T02:23:37.880Z,10.59
2023-04-19T02:26:05.835Z,10.49
2023-04-19T02:28:34.208Z,10.31
2023-04-19T02:31:04.912Z,10.22
2023-04-19T02:33:38.046Z,10.21
2023-04-19T02:36:06.299Z,10.34
2023-04-19T02:38:34.864Z,10.39
2023-04-19T02:41:04.518Z,10.26
2023-04-19T02:43:32.554Z,10.09
2023-04-19T02:46:00.462Z,10.00
2023-04-19T02:48:28.556Z,9.83
2023-04-19T02:50:57.090Z,10.01
2023-04-19T02:53:25.726Z,10.00
2023-04-19T02:55:53.999Z,9.81
2023-04-19T02:58:22.357Z,9.62
2023-04-19T03:01:07.298Z,9.58
2023-04-19T03:03:35.487Z,9.77
2023-04-19T03:06:03.790Z,9.81
2023-04-19T03:08:33.203Z,9.68
2023-04-19T03:11:01.109Z,9.69
2023-04-19T03:13:31.884Z,9.74
2023-04-19T03:16:00.352Z,9.75
2023-04-19T03:18:28.657Z,9.95
2023-04-19T03:20:57.177Z,9.99
2023-04-19T03:23:27.059Z,9.85
2023-04-19T03:25:59.486Z,9.84
2023-04-19T03:28:36.923Z,9.75
2023-04-19T03:31:37.610Z,9.73
2023-04-19T03:34:05.655Z,9.78
2023-04-19T03:36:39.939Z,10.03
2023-04-19T03:39:07.833Z,9.99
2023-04-19T03:42:28.852Z,9.63
2023-04-19T03:45:27.347Z,9.97
2023-04-19T03:47:55.736Z,10.00
2023-04-19T03:50:24.679Z,10.08
2023-04-19T03:52:54.665Z,10.19
2023-04-19T03:55:22.732Z,10.14
2023-04-19T03:57:50.724Z,10.16
2023-04-19T04:00:29.252Z,10.28
2023-04-19T04:02:57.938Z,10.47
2023-04-19T04:05:28.440Z,10.73
2023-04-19T04:07:57.951Z,10.98
2023-04-19T04:10:26.110Z,11.12
2023-04-19T04:12:54.615Z,11.13
2023-04-19T04:15:28.382Z,11.18
2023-04-19T04:17:57.358Z,11.26
2023-04-19T04:20:27.184Z,11.38
2023-04-19T04:22:59.611Z,11.56
2023-04-19T04:25:29.019Z,11.71
2023-04-19T04:27:59.409Z,11.87
2023-04-19T04:30:28.811Z,11.98
2023-04-19T04:32:58.899Z,12.06
2023-04-19T04:35:27.933Z,12.13
2023-04-19T04:38:17.486Z,12.24
2023-04-19T04:40:55.984Z,12.35
2023-04-19T04:43:25.854Z,12.43
2023-04-19T04:45:55.812Z,12.64
2023-04-19T04:48:24.651Z,12.96
2023-04-19T04:50:52.629Z,13.10
2023-04-19T04:53:20.800Z,13.01
2023-04-19T04:55:50.248Z,12.84
2023-04-19T04:58:20.531Z,12.69
2023-04-19T05:01:14.771Z,12.55
2023-04-19T05:03:42.822Z,12.44
2023-04-19T05:06:14.446Z,12.33
2023-04-19T05:08:42.499Z,12.23
2023-04-19T05:11:24.443Z,12.12
2023-04-19T05:13:53.532Z,12.01
2023-04-19T05:16:21.770Z,11.97
2023-04-19T05:18:49.881Z,12.07
2023-04-19T05:21:17.807Z,12.23
2023-04-19T05:23:46.455Z,12.28
2023-04-19T05:26:15.665Z,12.38
2023-04-19T05:28:44.550Z,12.50
2023-04-19T05:31:21.198Z,12.66
2023-04-19T05:34:03.457Z,12.78
2023-04-19T05:36:32.356Z,12.84
2023-04-19T05:39:01.182Z,12.82
2023-04-19T05:41:29.247Z,12.81
2023-04-19T05:43:57.295Z,12.94
2023-04-19T05:46:25.637Z,13.30
2023-04-19T05:48:53.703Z,13.66
2023-04-19T05:51:40.893Z,13.99
2023-04-19T05:54:23.639Z,14.18
2023-04-19T05:56:51.527Z,14.16
2023-04-19T05:59:19.650Z,14.06
2023-04-19T06:01:48.626Z,13.80
2023-04-19T06:04:17.092Z,13.75
2023-04-19T06:06:45.656Z,13.86
2023-04-19T06:09:15.838Z,13.81
2023-04-19T06:11:50.606Z,13.79
2023-04-19T06:14:20.084Z,13.90
2023-04-19T06:16:48.131Z,13.70
2023-04-19T06:19:16.546Z,13.57
2023-04-19T06:21:44.579Z,13.74
2023-04-19T06:24:12.501Z,13.98
2023-04-19T06:26:40.460Z,14.14
2023-04-19T06:29:08.414Z,14.29
2023-04-19T06:31:36.747Z,14.41
2023-04-19T06:34:04.827Z,14.40
2023-04-19T06:36:33.613Z,14.44
2023-04-19T06:39:01.449Z,14.54
2023-04-19T06:41:29.774Z,14.66
2023-04-19T06:43:57.712Z,14.77
2023-04-19T06:46:27.706Z,14.91
2023-04-19T06:48:55.759Z,15.09
2023-04-19T06:51:23.611Z,15.25
2023-04-19T06:53:51.808Z,15.27
2023-04-19T06:56:25.152Z,15.12
2023-04-19T06:58:53.054Z,15.01
2023-04-19T07:01:21.137Z,14.74
2023-04-19T07:03:49.382Z,14.73
2023-04-19T07:06:17.450Z,14.83
2023-04-19T07:08:50.197Z,14.97
2023-04-19T07:11:20.362Z,15.20
2023-04-19T07:13:50.192Z,15.39
2023-04-19T07:16:18.139Z,15.24
2023-04-19T07:18:46.453Z,15.30
2023-04-19T07:21:14.807Z,15.20
2023-04-19T07:23:43.108Z,14.96
2023-04-19T07:26:11.327Z,15.11
2023-04-19T07:28:39.790Z,15.26
2023-04-19T07:31:07.865Z,15.32
2023-04-19T07:33:36.186Z,15.34
2023-04-19T07:36:04.503Z,15.30
2023-04-19T07:38:32.634Z,15.40
2023-04-19T07:41:00.662Z,15.25
2023-04-19T07:43:30.234Z,15.37
2023-04-19T07:45:58.110Z,15.63
2023-04-19T07:48:27.205Z,15.70
2023-04-19T07:50:55.418Z,15.34
2023-04-19T07:53:23.289Z,15.48
2023-04-19T07:55:51.182Z,15.68
2023-04-19T07:58:19.033Z,15.57
2023-04-19T08:00:46.876Z,15.76
2023-04-19T08:03:14.930Z,15.91
2023-04-19T08:05:43.390Z,15.75
2023-04-19T08:08:11.416Z,15.62
2023-04-19T08:10:39.614Z,15.83
2023-04-19T08:13:07.532Z,15.96
2023-04-19T08:18:06.982Z,16.24
2023-04-19T08:20:37.023Z,16.41
2023-04-19T08:23:18.140Z,16.50
2023-04-19T08:25:50.969Z,16.62
2023-04-19T08:28:19.526Z,16.73
2023-04-19T08:30:47.636Z,16.88
2023-04-19T08:33:16.112Z,16.98
2023-04-19T08:35:45.774Z,16.81
2023-04-19T08:38:13.813Z,16.55
2023-04-19T08:40:46.054Z,16.67
2023-04-19T08:43:13.957Z,16.72
2023-04-19T08:45:41.851Z,16.81
2023-04-19T08:48:11.960Z,17.04
2023-04-19T08:53:23.948Z,16.78
2023-04-19T08:58:46.659Z,16.45
2023-04-19T09:04:03.379Z,16.95
2023-04-19T09:06:38.862Z,17.04
2023-04-19T09:11:55.375Z,17.07
2023-04-19T09:14:23.289Z,17.20
2023-04-19T09:16:52.482Z,17.42
2023-04-19T09:19:24.741Z,17.65
2023-04-19T09:21:54.846Z,17.88
2023-04-19T09:25:13.965Z,17.96
2023-04-19T09:27:35.288Z,17.41
2023-04-19T09:30:04.458Z,17.51
2023-04-19T09:32:46.585Z,17.72
2023-04-19T09:35:14.689Z,17.85
2023-04-19T09:40:25.843Z,18.18
2023-04-19T09:43:08.797Z,18.33
2023-04-19T09:45:46.551Z,18.45
2023-04-19T09:48:15.964Z,18.53
2023-04-19T09:50:59.078Z,18.63
2023-04-19T09:53:32.930Z,18.67
2023-04-19T09:56:03.065Z,18.69
2023-04-19T09:58:42.572Z,18.73
2023-04-19T10:01:16.647Z,18.78
2023-04-19T10:03:46.671Z,18.75
2023-04-19T10:08:50.201Z,18.73
2023-04-19T10:11:21.999Z,18.78
2023-04-19T10:13:50.172Z,18.49
2023-04-19T10:16:20.249Z,18.41
2023-04-19T10:18:50.105Z,18.44
2023-04-19T10:21:18.392Z,18.47
2023-04-19T10:23:46.552Z,18.40
2023-04-19T10:26:14.464Z,18.39
2023-04-19T10:28:43.888Z,18.31
2023-04-19T10:31:13.189Z,18.48
2023-04-19T10:33:41.542Z,18.05
2023-04-19T10:36:11.134Z,17.60
2023-04-19T10:38:49.132Z,17.34
2023-04-19T10:41:18.616Z,17.40
2023-04-19T10:44:11.004Z,17.17
2023-04-19T10:46:40.861Z,17.47
2023-04-19T10:49:09.964Z,17.53
2023-04-19T10:51:59.077Z,17.30
2023-04-19T10:54:34.358Z,17.02
2023-04-19T10:57:06.718Z,16.97
2023-04-19T10:59:35.598Z,17.55
2023-04-19T11:02:05.257Z,17.97
2023-04-19T11:04:36.658Z,18.33
2023-04-19T11:07:06.009Z,18.63
2023-04-19T11:09:39.185Z,18.90
2023-04-19T11:12:08.989Z,18.78
2023-04-19T11:14:40.011Z,18.16
2023-04-19T11:17:28.271Z,17.79
2023-04-19T11:20:00.880Z,17.51
2023-04-19T11:22:35.358Z,17.45
2023-04-19T11:25:10.604Z,17.94
2023-04-19T11:27:43.107Z,18.26
2023-04-19T11:30:13.236Z,18.07
2023-04-19T11:32:54.119Z,18.04
2023-04-19T11:35:22.756Z,17.59
2023-04-19T11:37:50.745Z,17.23
2023-04-19T11:40:19.699Z,17.46
2023-04-19T11:42:48.746Z,17.60
2023-04-19T11:45:32.974Z,17.78
2023-04-19T11:48:08.161Z,18.05
2023-04-19T11:50:36.461Z,18.28
2023-04-19T11:53:23.985Z,18.44
2023-04-19T11:55:53.387Z,18.56
2023-04-19T11:58:29.931Z,18.68
2023-04-19T12:01:08.509Z,18.73
2023-04-19T12:03:43.090Z,18.70
2023-04-19T12:06:16.536Z,18.60
2023-04-19T12:08:49.838Z,18.49
2023-04-19T12:11:19.050Z,18.08
2023-04-19T12:13:47.537Z,17.64
2023-04-19T12:16:15.534Z,17.60
2023-04-19T12:18:45.345Z,17.15
2023-04-19T12:21:27.219Z,17.10
2023-04-19T12:23:59.145Z,17.37
2023-04-19T12:26:28.466Z,17.60
2023-04-19T12:28:57.045Z,17.67
2023-04-19T12:33:54.305Z,17.75
2023-04-19T12:36:22.435Z,17.81
2023-04-19T12:38:50.476Z,17.87
2023-04-19T12:41:18.406Z,17.86
2023-04-19T12:43:46.332Z,17.76
2023-04-19T12:46:14.479Z,17.65
2023-04-19T12:48:42.746Z,17.59
2023-04-19T12:51:10.726Z,17.31
2023-04-19T12:53:38.554Z,17.17
2023-04-19T12:56:07.681Z,16.82
2023-04-19T12:58:35.757Z,16.53
2023-04-19T13:01:03.767Z,16.20
2023-04-19T13:03:33.325Z,16.23
2023-04-19T13:06:01.561Z,16.38
2023-04-19T13:08:44.285Z,16.23
2023-04-19T13:11:15.444Z,16.19
2023-04-19T13:13:43.340Z,16.13
2023-04-19T13:16:11.480Z,16.37
2023-04-19T13:18:39.756Z,16.52
2023-04-19T13:21:08.601Z,16.59
2023-04-19T13:23:36.900Z,16.24
2023-04-19T13:26:05.378Z,16.17
2023-04-19T13:28:35.986Z,16.34
2023-04-19T13:31:05.368Z,16.39
2023-04-19T13:33:34.062Z,16.30
2023-04-19T13:36:02.709Z,16.28
2023-04-19T13:38:30.926Z,16.37
2023-04-19T13:40:59.365Z,16.44
2023-04-19T13:43:27.305Z,16.37
2023-04-19T13:45:55.363Z,16.19
2023-04-19T13:48:23.522Z,16.25
2023-04-19T13:50:52.743Z,16.02
2023-04-19T13:53:20.949Z,15.95
2023-04-19T13:55:49.824Z,16.06
2023-04-19T13:58:18.050Z,16.12
2023-04-19T14:00:46.340Z,16.10
2023-04-19T14:03:14.715Z,16.02
2023-04-19T14:05:43.321Z,15.99
2023-04-19T14:08:11.403Z,16.00
2023-04-19T14:10:40.321Z,16.02
2023-04-19T14:13:08.212Z,15.94
2023-04-19T14:15:36.176Z,15.83
2023-04-19T14:18:04.178Z,15.78
2023-04-19T14:20:32.399Z,15.70
2023-04-19T14:23:01.280Z,15.61
2023-04-19T14:25:29.332Z,15.61
2023-04-19T14:27:58.734Z,15.54
2023-04-19T14:30:28.863Z,15.44
2023-04-19T14:32:59.398Z,15.37
2023-04-19T14:35:27.525Z,15.34
2023-04-19T14:37:55.656Z,15.34
2023-04-19T14:40:23.697Z,15.30
2023-04-19T14:42:51.780Z,15.24
2023-04-19T14:45:20.665Z,15.28
2023-04-19T14:47:48.776Z,15.31
2023-04-19T14:50:16.853Z,15.32
2023-04-19T14:52:44.887Z,15.36
2023-04-19T14:55:13.022Z,15.47
2023-04-19T14:57:41.144Z,15.50
2023-04-19T15:00:10.152Z,15.53
2023-04-19T15:02:38.507Z,15.53
2023-04-19T15:05:07.708Z,15.52
2023-04-19T15:07:36.014Z,15.55
2023-04-19T15:10:04.538Z,15.53
2023-04-19T15:12:33.057Z,15.53
2023-04-19T15:15:01.798Z,15.51
2023-04-19T15:17:30.170Z,15.49
2023-04-19T15:19:59.210Z,15.48
2023-04-19T15:22:27.214Z,15.51
2023-04-19T15:24:55.156Z,15.54
2023-04-19T15:27:23.253Z,15.58
2023-04-19T15:29:51.826Z,15.65
2023-04-19T15:32:20.040Z,15.70
2023-04-19T15:34:47.930Z,15.71
2023-04-19T15:37:15.951Z,15.69
2023-04-19T15:39:43.898Z,15.68
2023-04-19T15:42:13.014Z,15.68
2023-04-19T15:44:42.834Z,15.69
2023-04-19T15:47:12.096Z,15.71
2023-04-19T15:49:40.729Z,15.72
2023-04-19T15:52:08.887Z,15.70
2023-04-19T15:54:37.817Z,15.68
2023-04-19T15:57:05.740Z,15.68
2023-04-19T16:00:14.426Z,15.33
2023-04-19T16:02:43.661Z,15.65
2023-04-19T16:05:11.736Z,15.68
2023-04-19T16:07:40.053Z,15.67
2023-04-19T16:10:08.232Z,15.68
2023-04-19T16:12:36.655Z,15.67
2023-04-19T16:15:05.839Z,15.64
2023-04-19T16:17:34.487Z,15.63
2023-04-19T16:20:02.431Z,15.60
2023-04-19T16:22:30.647Z,15.51
2023-04-19T16:24:58.589Z,15.39
2023-04-19T16:27:27.233Z,15.29
2023-04-19T16:29:55.245Z,15.22
2023-04-19T16:32:23.377Z,15.20
2023-04-19T16:34:51.663Z,15.20
2023-04-19T16:37:19.705Z,15.20
2023-04-19T16:39:47.672Z,15.13
2023-04-19T16:42:16.569Z,15.09
2023-04-19T16:44:44.753Z,15.07
2023-04-19T16:47:12.678Z,15.05
2023-04-19T16:49:40.631Z,14.96
2023-04-19T16:52:08.551Z,14.98
2023-04-19T16:54:37.986Z,15.01
2023-04-19T16:57:06.080Z,14.93
2023-04-19T16:59:34.609Z,14.94
2023-04-19T17:02:02.942Z,14.91
2023-04-19T17:04:32.612Z,14.79
2023-04-19T17:07:01.208Z,14.79
2023-04-19T17:09:29.373Z,14.86
2023-04-19T17:11:57.888Z,14.72
2023-04-19T17:14:25.915Z,14.68
2023-04-19T17:16:54.193Z,14.67
2023-04-19T17:19:22.362Z,14.62
2023-04-19T17:21:51.568Z,14.62
2023-04-19T17:24:19.539Z,14.62
2023-04-19T17:26:47.596Z,14.60
2023-04-19T17:29:15.878Z,14.51
2023-04-19T17:31:44.202Z,14.42
2023-04-19T17:34:12.379Z,14.31
2023-04-19T17:36:42.268Z,14.42
2023-04-19T17:39:10.140Z,14.44
2023-04-19T17:41:38.026Z,14.38
2023-04-19T17:44:05.924Z,14.32
2023-04-19T17:46:34.539Z,14.43
2023-04-19T17:49:02.437Z,14.37
2023-04-19T17:51:31.306Z,14.40
2023-04-19T17:53:59.205Z,14.43
2023-04-19T17:56:27.098Z,14.48
2023-04-19T17:58:55.049Z,14.50
2023-04-19T18:01:23.073Z,14.55
2023-04-19T18:03:51.339Z,14.47
2023-04-19T18:06:20.956Z,14.54
2023-04-19T18:08:49.080Z,14.42
2023-04-19T18:11:18.258Z,14.48
2023-04-19T18:13:46.297Z,14.47
2023-04-19T18:16:15.858Z,14.53
2023-04-19T18:18:43.857Z,14.40
2023-04-19T18:21:11.783Z,14.28
2023-04-19T18:23:39.725Z,14.13
2023-04-19T18:26:07.730Z,14.17
2023-04-19T18:28:37.493Z,14.11
2023-04-19T18:31:06.402Z,14.13
2023-04-19T18:33:35.493Z,14.17
2023-04-19T18:36:04.860Z,14.09
2023-04-19T18:38:33.034Z,14.01
2023-04-19T18:41:01.224Z,13.90
2023-04-19T18:43:30.836Z,13.74
2023-04-19T18:46:00.340Z,13.59
2023-04-19T18:48:30.078Z,13.47
2023-04-19T18:50:59.429Z,13.40
2023-04-19T18:53:30.059Z,13.35
2023-04-19T18:55:58.466Z,13.33
2023-04-19T18:58:27.185Z,13.39
2023-04-19T19:00:55.926Z,13.36
2023-04-19T19:05:55.619Z,12.95
2023-04-19T19:08:24.407Z,12.92
2023-04-19T19:13:24.582Z,12.76
2023-04-19T19:15:54.769Z,12.69
2023-04-19T19:18:22.716Z,12.69
2023-04-19T19:20:51.530Z,12.47
2023-04-19T19:23:20.482Z,12.58
2023-04-19T19:25:54.148Z,12.58
2023-04-19T19:28:22.573Z,12.56
2023-04-19T19:30:50.647Z,12.62
2023-04-19T19:33:18.835Z,12.52
2023-04-19T19:35:46.843Z,12.59
2023-04-19T19:38:14.680Z,12.60
2023-04-19T19:41:11.092Z,12.48
2023-04-19T19:43:31.001Z,12.46
2023-04-19T19:46:00.266Z,12.43
2023-04-19T19:48:30.245Z,12.43
2023-04-19T19:53:31.624Z,12.23
2023-04-19T19:56:00.371Z,12.39
2023-04-19T19:58:48.348Z,12.09
2023-04-19T20:01:17.532Z,12.13
2023-04-19T20:03:45.881Z,12.05
2023-04-19T20:08:47.550Z,12.14
2023-04-19T20:11:15.820Z,12.03
2023-04-19T20:13:45.837Z,12.07
2023-04-19T20:16:14.812Z,12.11
2023-04-19T20:18:43.452Z,12.04
2023-04-19T20:21:11.976Z,11.99
2023-04-19T20:23:40.140Z,12.01
2023-04-19T20:26:08.072Z,12.06
2023-04-19T20:28:36.476Z,12.00
2023-04-19T20:31:05.387Z,11.95
2023-04-19T20:33:33.974Z,11.89
2023-04-19T20:36:03.853Z,11.85
2023-04-19T20:38:31.941Z,11.69
2023-04-19T20:40:59.831Z,11.68
2023-04-19T20:43:27.935Z,11.65
2023-04-19T20:45:55.876Z,11.72
2023-04-19T20:48:23.877Z,11.72
2023-04-19T20:50:52.106Z,11.74
2023-04-19T20:53:20.031Z,11.76
2023-04-19T20:55:47.954Z,11.63
2023-04-19T20:58:16.425Z,11.65
2023-04-19T21:00:44.677Z,11.63
2023-04-19T21:03:12.961Z,11.62
2023-04-19T21:05:41.503Z,11.62
2023-04-19T21:08:09.510Z,11.62
2023-04-19T21:10:37.985Z,11.57
2023-04-19T21:13:06.308Z,11.52
2023-04-19T21:15:36.856Z,11.50
2023-04-19T21:18:05.109Z,11.55
2023-04-19T21:20:34.046Z,11.58
2023-04-19T21:23:03.474Z,11.43
2023-04-19T21:25:31.454Z,11.47
2023-04-19T21:27:59.425Z,11.38
2023-04-19T21:30:27.488Z,11.44
2023-04-19T21:32:55.530Z,11.55
2023-04-19T21:35:24.853Z,11.49
2023-04-19T21:37:52.791Z,11.36
2023-04-19T21:40:20.852Z,11.48
2023-04-19T21:42:50.013Z,11.42
2023-04-19T21:45:17.974Z,11.39
2023-04-19T21:47:46.263Z,11.36
2023-04-19T21:50:14.425Z,11.46
2023-04-19T21:52:42.925Z,11.35
2023-04-19T21:55:10.822Z,11.54
2023-04-19T21:57:38.793Z,11.59
2023-04-19T22:00:11.347Z,11.70
2023-04-19T22:02:41.381Z,11.72
2023-04-19T22:05:09.706Z,11.62
2023-04-19T22:07:38.608Z,11.56
2023-04-19T22:10:07.563Z,11.55
2023-04-19T22:12:45.144Z,11.41
2023-04-19T22:15:19.672Z,11.39
2023-04-19T22:17:48.219Z,11.44
2023-04-19T22:20:17.877Z,11.47
2023-04-19T22:22:45.951Z,11.36
2023-04-19T22:25:13.823Z,11.37
2023-04-19T22:27:41.794Z,11.24
2023-04-19T22:30:09.849Z,11.38
2023-04-19T22:32:38.679Z,11.43
2023-04-19T22:35:08.473Z,11.44
2023-04-19T22:37:36.608Z,11.36
2023-04-19T22:40:08.088Z,11.33
2023-04-19T22:42:37.215Z,11.44
2023-04-19T22:45:06.186Z,11.41
2023-04-19T22:47:34.234Z,11.44
2023-04-19T22:50:04.038Z,11.40
2023-04-19T22:52:32.288Z,11.33
2023-04-19T22:55:00.331Z,11.29
2023-04-19T22:57:28.174Z,11.17
2023-04-19T22:59:56.160Z,11.13
2023-04-19T23:02:24.159Z,11.18
2023-04-19T23:04:52.219Z,11.23
2023-04-19T23:07:21.964Z,11.17
2023-04-19T23:09:51.079Z,11.27
2023-04-19T23:12:19.078Z,11.33
2023-04-19T23:14:48.500Z,11.17
2023-04-19T23:17:17.324Z,11.29
2023-04-19T23:19:45.216Z,11.29
2023-04-19T23:22:13.279Z,11.41
2023-04-19T23:24:41.306Z,11.36
2023-04-19T23:27:09.213Z,11.34
2023-04-19T23:29:37.512Z,11.25
2023-04-19T23:32:05.885Z,11.33
2023-04-19T23:34:34.575Z,11.36
2023-04-19T23:37:02.707Z,11.31
2023-04-19T23:39:31.253Z,11.32
2023-04-19T23:41:59.251Z,11.41
2023-04-19T23:44:27.483Z,11.43
2023-04-19T23:46:55.670Z,11.45
2023-04-19T23:49:23.704Z,11.34
2023-04-19T23:51:51.662Z,11.44
2023-04-19T23:54:22.313Z,11.44
2023-04-19T23:56:50.725Z,11.39
2023-04-19T23:59:19.338Z,11.43
